Главная страница
METAR-TAF:

METAR-TAF

Аэропорты :

Manassas Regional Airport (Harry P. Davis Field)

Manassas, Виргиния, США

широта: 38-43N, долгота: 077-31W, высота над уровнем моря: 59 м

Текущие метеонаблюдения

Эта сводка был подготовлена 30 минут назад, в 08:56 UTC
Штиль
Температура 7°C
Влажность 81%
Давление 1017 hPa
Видимость: 16.1 км
Сплошная облачность на высоте 12000 фута

METAR: KHEF 250856Z AUTO 00000KT 10SM OVC120 07/04 A3003 RMK AO2 SLP180 6//// T00720044 55008 PNO $

Время: 05:26 (09:26 UTC)


TAF: отсутствует

Метеонаблюдения и прогнозы для более 4000 аэропортов (сводки METAR и TAF).

Имеющиеся станции представлены на карте желтыми и красными точками.

Чтобы увидеть название станции, наведите на нее мышь.

Затем щелкните, чтобы увидеть метеонаблюдения и метеопрогнозы.

Управление картой: чтобы увеличить масштаб, щелкните зеленые кнопки с черным крестиком; чтобы уменьшить масштаб, щелкните зеленую кнопку с тире; для просмотра соседних карт щелкайте зеленые стрелки.


METAR-TAF: